createdAt,value
2019-01-09T00:01:09.321Z,61.79
2019-01-09T00:03:38.708Z,61.22
2019-01-09T00:06:08.107Z,61.03
2019-01-09T00:08:37.438Z,60.87
2019-01-09T00:11:06.794Z,61.01
2019-01-09T00:13:36.189Z,61.33
2019-01-09T00:16:05.576Z,61.06
2019-01-09T00:18:35.034Z,60.58
2019-01-09T00:21:04.391Z,60.71
2019-01-09T00:23:33.718Z,60.27
2019-01-09T00:26:03.047Z,60.31
2019-01-09T00:28:32.417Z,60.35
2019-01-09T00:31:01.866Z,60.41
2019-01-09T00:33:31.224Z,60.86
2019-01-09T00:36:00.601Z,60.24
2019-01-09T00:38:29.965Z,60.16
2019-01-09T00:40:59.346Z,60.29
2019-01-09T00:43:28.697Z,59.94
2019-01-09T00:45:58.058Z,59.80
2019-01-09T00:48:27.376Z,59.41
2019-01-09T00:50:56.700Z,59.94
2019-01-09T00:53:26.075Z,60.11
2019-01-09T00:55:55.484Z,59.36
2019-01-09T00:58:25.056Z,59.24
2019-01-09T01:00:54.449Z,59.49
2019-01-09T01:04:06.796Z,59.83
2019-01-09T01:07:25.838Z,59.56
2019-01-09T01:10:33.321Z,59.41
2019-01-09T01:13:54.431Z,59.47
2019-01-09T01:17:00.442Z,59.24
2019-01-09T01:20:18.630Z,58.92
2019-01-09T01:23:13.078Z,59.75
2019-01-09T01:26:23.517Z,59.43
2019-01-09T01:29:29.590Z,59.57
2019-01-09T01:32:38.860Z,59.48
2019-01-09T01:35:54.640Z,59.49
2019-01-09T01:39:04.917Z,59.83
2019-01-09T01:42:11.531Z,60.00
2019-01-09T01:45:36.784Z,59.99
2019-01-09T01:48:42.884Z,60.33
2019-01-09T01:51:52.993Z,59.96
2019-01-09T01:54:55.732Z,60.23
2019-01-09T01:57:50.737Z,59.64
2019-01-09T02:00:57.546Z,60.07
2019-01-09T02:03:56.589Z,60.36
2019-01-09T02:06:55.961Z,61.01
2019-01-09T02:09:50.529Z,60.77
2019-01-09T02:12:51.275Z,61.65
2019-01-09T02:16:11.112Z,61.86
2019-01-09T02:18:54.141Z,62.65
2019-01-09T02:21:57.161Z,63.96
2019-01-09T02:24:58.568Z,63.67
2019-01-09T02:27:47.526Z,64.46
2019-01-09T02:30:53.676Z,65.23
2019-01-09T02:33:23.086Z,66.04
2019-01-09T02:35:52.456Z,66.57
2019-01-09T02:38:26.771Z,66.90
2019-01-09T02:40:56.178Z,67.79
2019-01-09T02:43:26.531Z,68.25
2019-01-09T02:45:55.898Z,68.52
2019-01-09T02:48:27.635Z,69.01
2019-01-09T02:50:57.053Z,69.56
2019-01-09T02:53:26.387Z,70.48
2019-01-09T02:55:55.804Z,70.48
2019-01-09T02:58:25.160Z,70.75
2019-01-09T03:00:54.513Z,71.21
2019-01-09T03:03:23.856Z,71.61
2019-01-09T03:05:53.216Z,72.43
2019-01-09T03:08:22.622Z,72.22
2019-01-09T03:10:51.961Z,72.65
2019-01-09T03:13:21.298Z,72.80
2019-01-09T03:15:50.653Z,72.72
2019-01-09T03:18:19.996Z,72.69
2019-01-09T03:20:49.319Z,72.93
2019-01-09T03:23:18.674Z,72.83
2019-01-09T03:25:48.065Z,72.85
2019-01-09T03:28:17.384Z,73.04
2019-01-09T03:30:47.054Z,73.11
2019-01-09T03:33:16.413Z,72.82
2019-01-09T03:35:45.747Z,73.24
2019-01-09T03:38:15.119Z,73.36
2019-01-09T03:40:44.512Z,73.26
2019-01-09T03:43:13.843Z,73.60
2019-01-09T03:45:43.202Z,73.25
2019-01-09T03:48:12.503Z,73.53
2019-01-09T03:50:41.838Z,73.04
2019-01-09T03:53:11.193Z,73.59
2019-01-09T03:55:40.516Z,73.56
2019-01-09T03:58:09.867Z,73.85
2019-01-09T04:00:39.248Z,73.87
2019-01-09T04:03:11.025Z,74.24
2019-01-09T04:05:40.379Z,74.29
2019-01-09T04:08:10.191Z,74.20
2019-01-09T04:10:39.593Z,74.22
2019-01-09T04:13:08.945Z,74.16
2019-01-09T04:15:38.303Z,74.12
2019-01-09T04:18:07.657Z,74.67
2019-01-09T04:20:36.993Z,75.04
2019-01-09T04:23:06.426Z,74.80
2019-01-09T04:25:37.066Z,74.65
2019-01-09T04:28:06.433Z,74.73
2019-01-09T04:30:35.834Z,74.62
2019-01-09T04:33:05.162Z,74.89
2019-01-09T04:35:34.508Z,74.92
2019-01-09T04:38:03.830Z,74.74
2019-01-09T04:40:33.173Z,74.90
2019-01-09T04:43:02.538Z,74.62
2019-01-09T04:45:31.885Z,74.78
2019-01-09T04:48:01.261Z,74.31
2019-01-09T04:50:30.600Z,74.17
2019-01-09T04:52:59.919Z,74.07
2019-01-09T04:55:29.279Z,73.97
2019-01-09T04:57:58.602Z,73.94
2019-01-09T05:00:27.949Z,73.90
2019-01-09T05:02:57.348Z,73.80
2019-01-09T05:05:26.689Z,73.71
2019-01-09T05:07:56.054Z,73.87
2019-01-09T05:10:25.398Z,73.94
2019-01-09T05:12:55.045Z,73.90
2019-01-09T05:15:24.424Z,74.49
2019-01-09T05:17:53.785Z,74.90
2019-01-09T05:20:23.239Z,76.36
2019-01-09T05:22:52.618Z,75.97
2019-01-09T05:25:21.967Z,76.82
2019-01-09T05:27:51.323Z,76.72
2019-01-09T05:30:20.671Z,76.39
2019-01-09T05:32:50.109Z,76.40
2019-01-09T05:35:19.481Z,76.48
2019-01-09T05:37:48.865Z,77.00
2019-01-09T05:40:18.228Z,77.89
2019-01-09T05:42:47.666Z,78.52
2019-01-09T05:45:17.004Z,77.92
2019-01-09T05:47:46.469Z,77.86
2019-01-09T05:50:15.791Z,77.39
2019-01-09T05:52:45.109Z,77.52
2019-01-09T05:55:14.476Z,77.61
2019-01-09T05:57:43.823Z,77.51
2019-01-09T06:00:13.212Z,77.38
2019-01-09T06:02:42.622Z,77.64
2019-01-09T06:05:11.986Z,77.63
2019-01-09T06:07:41.381Z,77.86
2019-01-09T06:10:10.762Z,77.74
2019-01-09T06:12:40.205Z,77.56
2019-01-09T06:15:09.643Z,77.32
2019-01-09T06:17:39.056Z,77.44
2019-01-09T06:20:09.057Z,77.06
2019-01-09T06:22:38.490Z,76.99
2019-01-09T06:25:08.036Z,76.83
2019-01-09T06:27:37.484Z,76.75
2019-01-09T06:30:07.202Z,76.52
2019-01-09T06:32:36.633Z,76.46
2019-01-09T06:35:06.029Z,76.52
2019-01-09T06:37:35.444Z,76.30
2019-01-09T06:40:05.144Z,76.12
2019-01-09T06:42:34.543Z,75.86
2019-01-09T06:45:03.980Z,75.87
2019-01-09T06:47:33.337Z,76.03
2019-01-09T06:50:02.724Z,75.78
2019-01-09T06:52:33.027Z,75.82
2019-01-09T06:55:02.421Z,75.74
2019-01-09T06:57:31.756Z,75.40
2019-01-09T07:00:01.170Z,75.46
2019-01-09T07:02:30.517Z,75.82
2019-01-09T07:04:59.853Z,75.81
2019-01-09T07:07:36.031Z,75.55
2019-01-09T07:10:00.967Z,75.28
2019-01-09T07:12:30.584Z,75.67
2019-01-09T07:14:59.931Z,75.16
2019-01-09T07:17:29.380Z,75.18
2019-01-09T07:19:58.767Z,75.19
2019-01-09T07:22:28.106Z,75.41
2019-01-09T07:24:57.655Z,74.99
2019-01-09T07:27:26.964Z,74.53
2019-01-09T07:29:56.271Z,73.91
2019-01-09T07:32:25.619Z,73.43
2019-01-09T07:34:55.033Z,72.95
2019-01-09T07:37:24.418Z,73.76
2019-01-09T07:39:53.968Z,72.74
2019-01-09T07:42:23.358Z,71.87
2019-01-09T07:44:52.688Z,71.57
2019-01-09T07:47:22.033Z,70.64
2019-01-09T07:49:51.348Z,70.48
2019-01-09T07:52:20.689Z,70.05
2019-01-09T07:54:50.053Z,68.52
2019-01-09T07:57:19.407Z,68.23
2019-01-09T07:59:48.741Z,67.82
2019-01-09T08:02:18.146Z,67.93
2019-01-09T08:04:47.562Z,67.70
2019-01-09T08:07:16.963Z,67.31
2019-01-09T08:09:46.359Z,66.36
2019-01-09T08:12:15.734Z,66.23
2019-01-09T08:14:45.461Z,66.27
2019-01-09T08:17:14.849Z,65.88
2019-01-09T08:19:44.174Z,66.12
2019-01-09T08:22:13.586Z,65.26
2019-01-09T08:24:42.899Z,65.74
2019-01-09T08:27:12.303Z,65.15
2019-01-09T08:29:41.659Z,64.73
2019-01-09T08:32:11.083Z,64.88
2019-01-09T08:34:40.481Z,64.75
2019-01-09T08:37:09.858Z,64.75
2019-01-09T08:39:39.204Z,64.88
2019-01-09T08:42:08.554Z,65.28
2019-01-09T08:44:37.893Z,64.97
2019-01-09T08:47:07.290Z,64.72
2019-01-09T08:49:36.633Z,64.34
2019-01-09T08:52:05.921Z,64.22
2019-01-09T08:54:35.298Z,63.42
2019-01-09T08:57:04.717Z,63.93
2019-01-09T08:59:34.121Z,63.07
2019-01-09T09:02:03.489Z,63.01
2019-01-09T09:04:38.679Z,62.80
2019-01-09T09:07:08.118Z,62.58
2019-01-09T09:09:37.543Z,62.88
2019-01-09T09:12:06.864Z,63.13
2019-01-09T09:14:36.226Z,62.78
2019-01-09T09:17:05.613Z,63.49
2019-01-09T09:19:35.021Z,63.32
2019-01-09T09:22:04.390Z,63.89
2019-01-09T09:24:33.786Z,63.86
2019-01-09T09:27:03.138Z,63.81
2019-01-09T09:29:32.503Z,63.94
2019-01-09T09:32:01.917Z,63.83
2019-01-09T09:34:31.271Z,63.70
2019-01-09T09:37:00.630Z,64.00
2019-01-09T09:39:30.001Z,63.50
2019-01-09T09:41:59.417Z,63.68
2019-01-09T09:44:28.757Z,65.56
2019-01-09T09:46:58.145Z,64.00
2019-01-09T09:49:27.504Z,63.42
2019-01-09T09:51:56.849Z,62.92
2019-01-09T09:54:26.185Z,62.95
2019-01-09T09:56:55.538Z,62.78
2019-01-09T09:59:24.967Z,62.14
2019-01-09T10:01:54.342Z,61.92
2019-01-09T10:04:23.686Z,62.04
2019-01-09T10:06:53.041Z,61.99
2019-01-09T10:09:22.423Z,61.22
2019-01-09T10:11:51.761Z,61.92
2019-01-09T10:14:21.073Z,61.23
2019-01-09T10:16:50.465Z,60.84
2019-01-09T10:19:19.789Z,60.67
2019-01-09T10:21:49.146Z,60.57
2019-01-09T10:24:18.514Z,60.87
2019-01-09T10:26:47.844Z,61.39
2019-01-09T10:29:17.238Z,61.54
2019-01-09T10:31:46.587Z,61.32
2019-01-09T10:34:15.986Z,61.67
2019-01-09T10:36:45.369Z,61.44
2019-01-09T10:39:14.804Z,61.87
2019-01-09T10:41:44.176Z,62.13
2019-01-09T10:44:18.811Z,61.54
2019-01-09T10:46:44.653Z,61.69
2019-01-09T10:49:14.034Z,61.81
2019-01-09T10:51:43.389Z,62.45
2019-01-09T10:54:12.779Z,61.85
2019-01-09T10:56:42.155Z,61.47
2019-01-09T10:59:11.570Z,61.22
2019-01-09T11:01:40.948Z,61.05
2019-01-09T11:04:10.343Z,61.83
2019-01-09T11:06:39.679Z,61.18
2019-01-09T11:09:09.286Z,61.77
2019-01-09T11:11:38.729Z,61.74
2019-01-09T11:14:09.437Z,61.29
2019-01-09T11:16:38.841Z,62.07
2019-01-09T11:19:08.175Z,62.11
2019-01-09T11:21:37.627Z,61.78
2019-01-09T11:24:07.063Z,61.52
2019-01-09T11:26:36.412Z,61.28
2019-01-09T11:29:06.140Z,61.28
2019-01-09T11:31:37.199Z,61.28
2019-01-09T11:34:06.625Z,61.63
2019-01-09T11:36:36.098Z,62.16
2019-01-09T11:39:09.370Z,62.71
2019-01-09T11:41:39.257Z,63.25
2019-01-09T11:44:08.785Z,64.32
2019-01-09T11:46:38.317Z,65.20
2019-01-09T11:49:07.973Z,66.20
2019-01-09T11:51:37.503Z,67.19
2019-01-09T11:54:07.110Z,67.58
2019-01-09T11:56:36.683Z,68.52
2019-01-09T11:59:06.356Z,68.28
2019-01-09T12:01:35.954Z,68.66
2019-01-09T12:04:05.356Z,69.42
2019-01-09T12:06:34.670Z,69.48
2019-01-09T12:09:05.464Z,69.82
2019-01-09T12:11:34.826Z,70.53
2019-01-09T12:14:04.273Z,70.83
2019-01-09T12:16:33.654Z,71.09
2019-01-09T12:19:03.039Z,71.57
2019-01-09T12:21:32.413Z,71.69
2019-01-09T12:24:01.771Z,71.66
2019-01-09T12:26:31.119Z,72.21
2019-01-09T12:29:00.492Z,73.07
2019-01-09T12:31:29.839Z,73.16
2019-01-09T12:33:59.189Z,73.65
2019-01-09T12:36:28.546Z,73.79
2019-01-09T12:38:57.924Z,73.55
2019-01-09T12:41:27.300Z,73.96
2019-01-09T12:43:56.650Z,74.21
2019-01-09T12:46:25.998Z,75.02
2019-01-09T12:48:55.380Z,74.67
2019-01-09T12:51:24.761Z,75.00
2019-01-09T12:53:54.151Z,75.33
2019-01-09T12:56:23.506Z,75.07
2019-01-09T12:58:52.897Z,75.07
2019-01-09T13:01:22.285Z,75.52
2019-01-09T13:03:51.672Z,75.05
2019-01-09T13:06:21.035Z,75.51
2019-01-09T13:08:50.464Z,75.39
2019-01-09T13:11:19.840Z,75.15
2019-01-09T13:13:49.170Z,75.03
2019-01-09T13:16:18.528Z,75.45
2019-01-09T13:18:48.000Z,75.51
2019-01-09T13:21:17.364Z,75.34
2019-01-09T13:23:46.758Z,75.43
2019-01-09T13:26:16.408Z,75.62
2019-01-09T13:28:45.753Z,75.75
2019-01-09T13:31:15.172Z,75.31
2019-01-09T13:33:44.533Z,75.16
2019-01-09T13:36:13.999Z,75.06
2019-01-09T13:38:43.371Z,75.02
2019-01-09T13:41:12.756Z,74.64
2019-01-09T13:43:42.097Z,74.65
2019-01-09T13:46:11.444Z,74.31
2019-01-09T13:48:40.805Z,74.53
2019-01-09T13:51:10.168Z,74.56
2019-01-09T13:53:39.554Z,74.82
2019-01-09T13:56:08.906Z,74.92
2019-01-09T13:58:38.293Z,74.54
2019-01-09T14:01:07.621Z,75.11
2019-01-09T14:03:37.005Z,75.39
2019-01-09T14:06:06.357Z,75.63
2019-01-09T14:08:35.710Z,75.96
2019-01-09T14:11:05.174Z,76.17
2019-01-09T14:13:34.563Z,76.37
2019-01-09T14:16:03.882Z,76.79
2019-01-09T14:18:33.240Z,77.20
2019-01-09T14:21:02.712Z,77.41
2019-01-09T14:23:34.462Z,77.57
2019-01-09T14:26:05.458Z,77.83
2019-01-09T14:28:34.819Z,78.13
2019-01-09T14:31:07.217Z,77.97
2019-01-09T14:33:36.743Z,78.02
2019-01-09T14:36:06.246Z,78.14
2019-01-09T14:38:35.579Z,78.29
2019-01-09T14:41:05.245Z,77.92
2019-01-09T14:43:34.632Z,77.99
2019-01-09T14:46:04.055Z,78.16
2019-01-09T14:48:33.453Z,78.95
2019-01-09T14:51:19.625Z,78.89
2019-01-09T14:53:48.951Z,78.45
2019-01-09T14:56:18.245Z,78.50
2019-01-09T14:58:47.568Z,78.28
2019-01-09T15:01:17.017Z,78.05
2019-01-09T15:03:46.513Z,77.61
2019-01-09T15:06:16.243Z,76.55
2019-01-09T15:08:45.644Z,76.12
2019-01-09T15:11:14.994Z,77.09
2019-01-09T15:13:44.759Z,77.24
2019-01-09T15:16:14.118Z,77.05
2019-01-09T15:18:43.425Z,77.06
2019-01-09T15:21:12.800Z,77.56
2019-01-09T15:23:42.221Z,77.29
2019-01-09T15:26:11.659Z,77.55
2019-01-09T15:28:41.035Z,77.77
2019-01-09T15:31:10.386Z,78.00
2019-01-09T15:33:39.746Z,77.26
2019-01-09T15:36:09.115Z,76.09
2019-01-09T15:38:40.792Z,75.72
2019-01-09T15:41:10.134Z,75.70
2019-01-09T15:43:39.555Z,75.54
2019-01-09T15:46:09.000Z,74.91
2019-01-09T15:48:38.342Z,73.76
2019-01-09T15:53:26.707Z,73.34
2019-01-09T15:55:56.047Z,73.10
2019-01-09T15:58:25.698Z,73.21
2019-01-09T16:00:57.925Z,74.21
2019-01-09T16:03:27.382Z,74.71
2019-01-09T16:05:56.805Z,75.04
2019-01-09T16:08:26.131Z,75.39
2019-01-09T16:10:55.462Z,75.96
2019-01-09T16:13:24.833Z,76.03
2019-01-09T16:15:54.200Z,76.06
2019-01-09T16:18:23.576Z,76.81
2019-01-09T16:20:53.023Z,76.44
2019-01-09T16:23:24.119Z,76.87
2019-01-09T16:25:56.387Z,77.49
2019-01-09T16:28:25.808Z,76.89
2019-01-09T16:31:14.549Z,77.55
2019-01-09T16:33:43.903Z,76.85
2019-01-09T16:36:13.368Z,77.17
2019-01-09T16:38:42.980Z,77.51
2019-01-09T16:41:12.696Z,77.94
2019-01-09T16:43:42.054Z,77.77
2019-01-09T16:46:12.650Z,77.74
2019-01-09T16:48:42.014Z,77.71
2019-01-09T16:51:11.347Z,77.82
2019-01-09T16:53:40.756Z,77.81
2019-01-09T16:56:11.756Z,77.64
2019-01-09T16:58:41.294Z,77.63
2019-01-09T17:01:25.215Z,78.25
2019-01-09T17:03:54.565Z,77.87
2019-01-09T17:06:24.021Z,77.38
2019-01-09T17:08:53.417Z,77.46
2019-01-09T17:11:22.808Z,77.08
2019-01-09T17:13:52.294Z,76.60
2019-01-09T17:16:22.772Z,76.56
2019-01-09T17:18:52.711Z,76.13
2019-01-09T17:21:22.403Z,75.38
2019-01-09T17:23:51.842Z,74.29
2019-01-09T17:26:21.762Z,74.44
2019-01-09T17:28:51.172Z,73.46
2019-01-09T17:31:20.959Z,73.02
2019-01-09T17:33:51.068Z,73.05
2019-01-09T17:36:20.514Z,73.17
2019-01-09T17:38:49.877Z,74.00
2019-01-09T17:41:19.262Z,74.03
2019-01-09T17:43:48.734Z,73.61
2019-01-09T17:46:18.081Z,73.96
2019-01-09T17:48:47.519Z,73.99
2019-01-09T17:51:16.941Z,74.61
2019-01-09T17:53:46.295Z,74.63
2019-01-09T17:56:15.649Z,74.95
2019-01-09T17:58:44.965Z,75.69
2019-01-09T18:01:14.336Z,75.80
2019-01-09T18:03:43.751Z,76.25
2019-01-09T18:06:13.150Z,76.14
2019-01-09T18:08:44.032Z,76.32
2019-01-09T18:11:13.488Z,76.28
2019-01-09T18:13:42.821Z,76.59
2019-01-09T18:16:12.197Z,75.82
2019-01-09T18:19:50.442Z,76.93
2019-01-09T18:22:19.811Z,76.49
2019-01-09T18:24:49.170Z,75.74
2019-01-09T18:27:18.600Z,75.10
2019-01-09T18:29:47.956Z,75.85
2019-01-09T18:32:30.311Z,76.50
2019-01-09T18:35:09.827Z,77.05
2019-01-09T18:37:58.610Z,77.28
2019-01-09T18:40:59.336Z,78.34
2019-01-09T18:44:10.216Z,79.36
2019-01-09T18:47:32.404Z,80.73
2019-01-09T18:50:48.583Z,82.10
2019-01-09T18:53:50.945Z,82.65
2019-01-09T18:56:20.433Z,82.87
2019-01-09T18:58:52.136Z,83.73
2019-01-09T19:01:21.529Z,83.29
2019-01-09T19:03:50.979Z,83.48
2019-01-09T19:06:22.731Z,83.38
2019-01-09T19:08:52.084Z,83.29
2019-01-09T19:11:21.520Z,83.43
2019-01-09T19:13:51.165Z,83.32
2019-01-09T19:16:20.537Z,83.41
2019-01-09T19:18:54.184Z,83.77
2019-01-09T19:21:21.022Z,83.16
2019-01-09T19:23:50.479Z,83.30
2019-01-09T19:26:19.885Z,83.43
2019-01-09T19:28:49.291Z,83.73
2019-01-09T19:31:18.804Z,83.62
2019-01-09T19:33:50.158Z,83.52
2019-01-09T19:36:23.380Z,83.62
2019-01-09T19:39:00.590Z,83.20
2019-01-09T19:41:44.722Z,83.45
2019-01-09T19:44:14.113Z,83.54
2019-01-09T19:46:44.248Z,83.58
2019-01-09T19:49:13.977Z,83.64
2019-01-09T19:51:43.369Z,83.95
2019-01-09T19:54:12.743Z,83.93
2019-01-09T19:56:42.208Z,84.00
2019-01-09T19:59:11.681Z,84.27
2019-01-09T20:01:44.673Z,84.16
2019-01-09T20:04:14.007Z,84.05
2019-01-09T20:06:43.356Z,83.73
2019-01-09T20:09:12.748Z,83.67
2019-01-09T20:11:42.154Z,84.07
2019-01-09T20:14:11.653Z,84.09
2019-01-09T20:16:41.002Z,83.94
2019-01-09T20:19:10.819Z,83.49
2019-01-09T20:21:40.194Z,83.13
2019-01-09T20:24:09.731Z,83.17
2019-01-09T20:26:39.080Z,82.88
2019-01-09T20:29:08.468Z,82.59
2019-01-09T20:31:37.950Z,82.95
2019-01-09T20:36:33.328Z,82.73
2019-01-09T20:39:02.850Z,82.65
2019-01-09T20:41:35.369Z,82.79
2019-01-09T20:44:03.460Z,82.52
2019-01-09T20:46:33.040Z,82.66
2019-01-09T20:49:03.875Z,82.84
2019-01-09T20:51:33.386Z,82.62
2019-01-09T20:54:02.869Z,82.65
2019-01-09T20:56:32.227Z,82.64
2019-01-09T20:59:01.650Z,82.31
2019-01-09T21:01:31.069Z,82.85
2019-01-09T21:04:00.503Z,82.62
2019-01-09T21:06:29.855Z,82.43
2019-01-09T21:09:00.173Z,82.46
2019-01-09T21:11:29.798Z,82.67
2019-01-09T21:13:59.189Z,82.57
2019-01-09T21:16:28.621Z,82.35
2019-01-09T21:18:58.139Z,82.34
2019-01-09T21:21:27.501Z,82.27
2019-01-09T21:23:58.960Z,82.32
2019-01-09T21:26:28.312Z,82.21
2019-01-09T21:28:57.712Z,82.29
2019-01-09T21:31:27.370Z,82.59
2019-01-09T21:33:56.731Z,82.31
2019-01-09T21:36:26.115Z,82.48
2019-01-09T21:38:55.850Z,82.45
2019-01-09T21:41:25.249Z,82.28
2019-01-09T21:43:54.601Z,82.58
2019-01-09T21:46:23.931Z,82.39
2019-01-09T21:48:53.328Z,82.12
2019-01-09T21:51:22.808Z,82.12
2019-01-09T21:53:52.181Z,82.09
2019-01-09T21:56:21.541Z,82.18
2019-01-09T21:58:50.985Z,82.13
2019-01-09T22:01:20.708Z,82.38
2019-01-09T22:03:50.067Z,82.40
2019-01-09T22:06:19.523Z,82.33
2019-01-09T22:08:49.056Z,82.55
2019-01-09T22:11:18.533Z,82.35
2019-01-09T22:13:47.885Z,82.54
2019-01-09T22:16:17.228Z,82.44
2019-01-09T22:18:46.596Z,82.24
2019-01-09T22:21:15.956Z,82.02
2019-01-09T22:23:45.337Z,82.54
2019-01-09T22:26:14.664Z,82.37
2019-01-09T22:28:44.064Z,82.75
2019-01-09T22:31:13.888Z,82.21
2019-01-09T22:33:43.355Z,82.39
2019-01-09T22:36:12.695Z,82.45
2019-01-09T22:38:42.055Z,82.59
2019-01-09T22:41:11.548Z,82.59
2019-01-09T22:43:40.932Z,82.17
2019-01-09T22:46:10.383Z,81.88
2019-01-09T22:48:39.775Z,81.98
2019-01-09T22:51:09.261Z,81.89
2019-01-09T22:53:38.592Z,82.07
2019-01-09T22:56:07.971Z,82.29
2019-01-09T22:58:37.330Z,82.17
2019-01-09T23:01:18.664Z,82.41
2019-01-09T23:03:48.536Z,82.30
2019-01-09T23:06:17.888Z,82.02
2019-01-09T23:08:47.255Z,82.39
2019-01-09T23:11:16.629Z,82.53
2019-01-09T23:13:46.003Z,82.50
2019-01-09T23:16:15.374Z,82.69
2019-01-09T23:18:45.759Z,82.37
2019-01-09T23:21:15.627Z,82.34
2019-01-09T23:23:47.919Z,82.52
2019-01-09T23:26:17.310Z,82.54
2019-01-09T23:28:48.493Z,82.62
2019-01-09T23:31:17.829Z,82.34
2019-01-09T23:33:47.636Z,82.24
2019-01-09T23:36:17.070Z,82.44
2019-01-09T23:38:46.451Z,82.24
2019-01-09T23:41:15.846Z,82.03
2019-01-09T23:43:45.171Z,81.98
2019-01-09T23:46:14.634Z,81.86
2019-01-09T23:48:43.981Z,81.38
2019-01-09T23:51:13.350Z,81.62
2019-01-09T23:53:42.741Z,81.89
2019-01-09T23:56:12.106Z,81.71
2019-01-09T23:58:41.430Z,81.84
